createdAt,value
2023-03-19T00:02:40.273Z,43.47
2023-03-19T00:05:07.567Z,49.30
2023-03-19T00:07:34.535Z,51.90
2023-03-19T00:10:02.932Z,50.78
2023-03-19T00:12:29.770Z,45.92
2023-03-19T00:14:56.560Z,48.67
2023-03-19T00:17:23.370Z,46.28
2023-03-19T00:19:50.628Z,50.53
2023-03-19T00:22:17.491Z,49.60
2023-03-19T00:24:44.835Z,51.50
2023-03-19T00:27:12.031Z,45.35
2023-03-19T00:29:38.929Z,47.17
2023-03-19T00:32:05.944Z,48.72
2023-03-19T00:34:32.821Z,46.13
2023-03-19T00:36:59.797Z,47.20
2023-03-19T00:39:26.886Z,112.22
2023-03-19T00:41:53.820Z,49.35
2023-03-19T00:44:20.660Z,44.40
2023-03-19T00:46:47.536Z,40.97
2023-03-19T00:49:14.429Z,51.50
2023-03-19T00:51:43.885Z,47.45
2023-03-19T00:54:12.555Z,46.78
2023-03-19T00:56:39.541Z,45.08
2023-03-19T00:59:06.962Z,42.67
2023-03-19T01:01:34.575Z,48.05
2023-03-19T01:04:01.916Z,43.83
2023-03-19T01:06:28.874Z,41.78
2023-03-19T01:08:56.129Z,40.63
2023-03-19T01:11:25.892Z,49.53
2023-03-19T01:13:52.897Z,43.30
2023-03-19T01:16:19.945Z,44.67
2023-03-19T01:18:47.282Z,46.88
2023-03-19T01:21:14.692Z,44.88
2023-03-19T01:23:47.094Z,43.28
2023-03-19T01:26:14.112Z,40.58
2023-03-19T01:29:03.571Z,39.50
2023-03-19T01:31:30.503Z,43.63
2023-03-19T01:34:32.700Z,44.67
2023-03-19T01:37:07.827Z,42.15
2023-03-19T01:39:34.789Z,43.13
2023-03-19T01:42:06.831Z,41.47
2023-03-19T01:44:45.121Z,43.58
2023-03-19T01:47:38.324Z,40.55
2023-03-19T01:50:54.081Z,44.92
2023-03-19T01:53:47.717Z,39.07
2023-03-19T01:56:27.975Z,42.40
2023-03-19T01:59:17.132Z,40.95
2023-03-19T02:02:05.532Z,40.40
2023-03-19T02:04:36.137Z,46.70
2023-03-19T02:07:04.734Z,43.20
2023-03-19T02:09:32.187Z,38.28
2023-03-19T02:12:02.013Z,39.72
2023-03-19T02:14:29.607Z,44.72
2023-03-19T02:16:57.002Z,42.15
2023-03-19T02:20:06.274Z,41.10
2023-03-19T02:22:33.737Z,46.70
2023-03-19T02:25:07.409Z,47.50
2023-03-19T02:27:37.155Z,45.85
2023-03-19T02:30:27.985Z,52.00
2023-03-19T02:32:56.434Z,52.05
2023-03-19T02:35:30.313Z,47.30
2023-03-19T02:37:57.237Z,50.05
2023-03-19T02:40:29.635Z,44.97
2023-03-19T02:42:56.822Z,46.10
2023-03-19T02:45:29.535Z,45.22
2023-03-19T02:47:56.709Z,45.92
2023-03-19T02:50:24.152Z,44.78
2023-03-19T02:52:51.030Z,46.33
2023-03-19T02:55:18.610Z,45.97
2023-03-19T02:57:45.997Z,42.33
2023-03-19T03:00:13.724Z,46.65
2023-03-19T03:02:41.106Z,43.28
2023-03-19T03:05:09.318Z,47.72
2023-03-19T03:07:37.802Z,49.15
2023-03-19T03:10:04.956Z,45.47
2023-03-19T03:12:32.589Z,48.40
2023-03-19T03:14:59.625Z,40.15
2023-03-19T03:17:27.051Z,43.17
2023-03-19T03:19:53.881Z,46.83
2023-03-19T03:22:20.717Z,43.05
2023-03-19T03:24:47.558Z,40.85
2023-03-19T03:27:14.634Z,40.33
2023-03-19T03:29:41.716Z,39.40
2023-03-19T03:32:08.951Z,39.35
2023-03-19T03:34:36.445Z,36.67
2023-03-19T03:37:03.255Z,40.10
2023-03-19T03:39:30.232Z,36.85
2023-03-19T03:41:57.176Z,40.95
2023-03-19T03:44:24.416Z,40.38
2023-03-19T03:46:51.976Z,35.08
2023-03-19T03:49:18.845Z,40.88
2023-03-19T03:51:45.818Z,40.50
2023-03-19T03:54:12.781Z,34.72
2023-03-19T03:56:39.804Z,35.25
2023-03-19T03:59:07.869Z,37.47
2023-03-19T04:01:34.731Z,31.63
2023-03-19T04:04:01.862Z,29.67
2023-03-19T04:06:29.682Z,32.45
2023-03-19T04:09:11.853Z,34.67
2023-03-19T04:11:39.315Z,34.17
2023-03-19T04:14:08.211Z,31.63
2023-03-19T04:16:36.832Z,31.10
2023-03-19T04:19:03.721Z,33.40
2023-03-19T04:21:30.669Z,32.95
2023-03-19T04:23:57.688Z,30.60
2023-03-19T04:26:24.598Z,30.38
2023-03-19T04:28:51.753Z,32.50
2023-03-19T04:31:18.953Z,34.15
2023-03-19T04:33:46.075Z,30.45
2023-03-19T04:36:14.235Z,35.65
2023-03-19T04:38:41.751Z,32.30
2023-03-19T04:41:09.070Z,26.35
2023-03-19T04:43:39.901Z,29.02
2023-03-19T04:46:09.721Z,32.35
2023-03-19T04:48:38.020Z,33.45
2023-03-19T04:51:05.416Z,30.95
2023-03-19T04:53:33.141Z,27.15
2023-03-19T04:55:59.995Z,27.00
2023-03-19T04:58:27.696Z,34.20
2023-03-19T05:01:00.002Z,35.45
2023-03-19T05:03:50.125Z,34.92
2023-03-19T05:06:20.226Z,32.50
2023-03-19T05:08:47.334Z,38.33
2023-03-19T05:11:16.787Z,32.83
2023-03-19T05:14:01.995Z,32.15
2023-03-19T05:16:35.945Z,34.80
2023-03-19T05:19:03.312Z,35.05
2023-03-19T05:21:35.264Z,31.73
2023-03-19T05:24:04.825Z,30.52
2023-03-19T05:26:35.583Z,31.10
2023-03-19T05:29:10.939Z,28.00
2023-03-19T05:31:55.553Z,40.40
2023-03-19T05:34:22.466Z,29.17
2023-03-19T05:36:50.089Z,30.02
2023-03-19T05:39:19.662Z,30.42
2023-03-19T05:41:47.106Z,28.33
2023-03-19T05:44:18.840Z,26.02
2023-03-19T05:47:06.005Z,23.13
2023-03-19T05:49:36.026Z,28.88
2023-03-19T05:52:04.636Z,23.95
2023-03-19T05:54:32.009Z,23.60
2023-03-19T05:57:06.013Z,25.00
2023-03-19T06:00:02.399Z,20.75
2023-03-19T06:02:33.048Z,22.20
2023-03-19T06:05:23.333Z,33.53
2023-03-19T06:07:53.273Z,22.60
2023-03-19T06:10:40.664Z,25.80
2023-03-19T06:13:10.951Z,20.58
2023-03-19T06:16:00.163Z,20.05
2023-03-19T06:18:32.175Z,23.35
2023-03-19T06:21:02.042Z,21.27
2023-03-19T06:23:28.916Z,21.23
2023-03-19T06:25:55.805Z,19.90
2023-03-19T06:28:25.449Z,19.77
2023-03-19T06:30:54.932Z,17.63
2023-03-19T06:33:51.510Z,20.38
2023-03-19T06:36:18.749Z,19.90
2023-03-19T06:38:45.979Z,18.05
2023-03-19T06:41:12.992Z,23.00
2023-03-19T06:46:11.460Z,13.35
2023-03-19T06:48:38.950Z,12.77
2023-03-19T06:51:06.290Z,17.55
2023-03-19T06:53:33.947Z,15.52
2023-03-19T06:56:01.397Z,16.02
2023-03-19T06:58:28.534Z,14.80
2023-03-19T07:00:56.851Z,16.25
2023-03-19T07:03:24.473Z,17.42
2023-03-19T07:05:51.929Z,14.70
2023-03-19T07:08:18.851Z,15.32
2023-03-19T07:10:45.739Z,14.65
2023-03-19T07:13:12.750Z,15.20
2023-03-19T07:15:39.571Z,12.70
2023-03-19T07:18:06.654Z,15.75
2023-03-19T07:20:33.962Z,14.43
2023-03-19T07:23:00.961Z,13.93
2023-03-19T07:39:54.837Z,15.82
2023-03-19T07:42:21.841Z,18.55
2023-03-19T07:44:48.668Z,12.57
2023-03-19T07:47:27.860Z,14.32
2023-03-19T07:49:55.818Z,12.82
2023-03-19T07:52:22.938Z,13.25
2023-03-19T07:54:50.714Z,13.65
2023-03-19T07:57:17.714Z,14.00
2023-03-19T07:59:44.642Z,13.73
2023-03-19T08:02:13.480Z,10.93
2023-03-19T08:04:41.476Z,15.27
2023-03-19T08:07:10.848Z,12.40
2023-03-19T08:09:37.980Z,11.20
2023-03-19T08:12:05.812Z,12.27
2023-03-19T08:14:35.873Z,15.63
2023-03-19T08:17:02.836Z,13.45
2023-03-19T08:19:29.808Z,12.40
2023-03-19T08:21:56.687Z,11.57
2023-03-19T08:24:23.725Z,14.85
2023-03-19T08:26:50.787Z,19.00
2023-03-19T08:29:19.061Z,18.88
2023-03-19T08:31:46.532Z,13.07
2023-03-19T08:34:13.433Z,14.30
2023-03-19T08:36:40.607Z,14.45
2023-03-19T08:39:08.890Z,12.65
2023-03-19T08:41:36.041Z,12.35
2023-03-19T08:44:03.027Z,14.82
2023-03-19T08:46:30.386Z,13.00
2023-03-19T08:48:57.520Z,12.43
2023-03-19T08:51:26.183Z,13.52
2023-03-19T08:53:53.858Z,13.43
2023-03-19T08:56:20.855Z,12.63
2023-03-19T08:58:48.201Z,13.50
2023-03-19T09:01:16.006Z,13.48
2023-03-19T09:03:45.454Z,12.70
2023-03-19T09:06:14.647Z,14.80
2023-03-19T09:08:42.340Z,16.40
2023-03-19T09:11:11.059Z,13.35
2023-03-19T09:13:38.032Z,14.32
2023-03-19T09:16:05.916Z,13.07
2023-03-19T09:18:34.081Z,11.95
2023-03-19T09:21:01.079Z,14.23
2023-03-19T09:23:28.514Z,11.50
2023-03-19T09:25:55.521Z,13.25
2023-03-19T09:28:23.101Z,14.18
2023-03-19T09:30:51.538Z,13.45
2023-03-19T09:33:20.511Z,13.13
2023-03-19T09:35:52.829Z,11.98
2023-03-19T09:38:21.334Z,13.60
2023-03-19T09:40:54.459Z,13.05
2023-03-19T09:43:42.062Z,12.52
2023-03-19T09:46:19.490Z,11.30
2023-03-19T09:49:01.010Z,12.15
2023-03-19T09:51:55.990Z,14.48
2023-03-19T09:56:54.913Z,22.23
2023-03-19T09:59:27.800Z,11.52
2023-03-19T10:02:20.124Z,14.30
2023-03-19T10:05:20.840Z,13.02
2023-03-19T10:07:47.753Z,14.15
2023-03-19T10:10:37.696Z,14.02
2023-03-19T10:13:10.656Z,15.90
2023-03-19T10:15:40.323Z,16.63
2023-03-19T10:18:21.517Z,15.52
2023-03-19T10:21:06.654Z,19.60
2023-03-19T10:23:42.106Z,14.10
2023-03-19T10:26:13.145Z,17.08
2023-03-19T10:28:43.998Z,16.33
2023-03-19T10:31:36.833Z,12.43
2023-03-19T10:34:22.022Z,14.73
2023-03-19T10:36:49.055Z,13.68
2023-03-19T10:39:17.212Z,13.70
2023-03-19T10:42:02.962Z,12.40
2023-03-19T10:44:42.457Z,16.30
2023-03-19T10:47:14.831Z,14.48
2023-03-19T10:49:42.353Z,14.05
2023-03-19T10:52:25.286Z,14.35
2023-03-19T10:55:12.672Z,13.30
2023-03-19T10:57:43.053Z,14.43
2023-03-19T11:00:24.257Z,15.32
2023-03-19T11:02:54.216Z,13.15
2023-03-19T11:05:32.622Z,14.88
2023-03-19T11:08:05.922Z,14.88
2023-03-19T11:10:36.296Z,14.38
2023-03-19T11:13:21.680Z,16.20
2023-03-19T11:15:49.301Z,14.75
2023-03-19T11:18:19.251Z,13.23
2023-03-19T11:20:54.318Z,14.70
2023-03-19T11:23:21.351Z,12.82
2023-03-19T11:25:53.515Z,12.57
2023-03-19T11:28:26.270Z,13.90
2023-03-19T11:30:53.510Z,14.23
2023-03-19T11:33:44.037Z,15.35
2023-03-19T11:36:22.254Z,15.50
2023-03-19T11:39:23.154Z,15.13
2023-03-19T11:41:56.036Z,13.30
2023-03-19T11:44:47.484Z,15.65
2023-03-19T11:47:39.572Z,16.23
2023-03-19T11:50:18.780Z,17.80
2023-03-19T11:53:24.772Z,16.10
2023-03-19T11:55:57.738Z,15.68
2023-03-19T11:58:52.550Z,14.98
2023-03-19T12:01:43.289Z,14.27
2023-03-19T12:04:29.102Z,12.98
2023-03-19T12:07:13.954Z,13.43
2023-03-19T12:10:26.572Z,15.02
2023-03-19T12:13:50.775Z,14.95
2023-03-19T12:16:29.535Z,13.60
2023-03-19T12:19:14.694Z,14.55
2023-03-19T12:22:03.319Z,15.95
2023-03-19T12:25:07.724Z,14.88
2023-03-19T12:28:02.193Z,15.70
2023-03-19T12:30:54.056Z,13.85
2023-03-19T12:33:34.754Z,15.98
2023-03-19T12:36:05.401Z,16.95
2023-03-19T12:38:43.687Z,15.55
2023-03-19T12:41:15.122Z,15.77
2023-03-19T12:44:03.186Z,17.17
2023-03-19T12:46:38.912Z,15.65
2023-03-19T12:49:16.424Z,16.20
2023-03-19T12:51:52.834Z,16.67
2023-03-19T12:54:35.733Z,19.90
2023-03-19T12:57:39.986Z,17.02
2023-03-19T13:00:20.350Z,15.23
2023-03-19T13:02:57.749Z,17.85
2023-03-19T13:05:39.261Z,19.50
2023-03-19T13:08:16.957Z,18.35
2023-03-19T13:10:43.882Z,19.17
2023-03-19T13:13:35.777Z,22.02
2023-03-19T13:16:21.197Z,22.40
2023-03-19T13:18:57.422Z,18.40
2023-03-19T13:21:32.902Z,18.25
2023-03-19T13:24:06.933Z,17.42
2023-03-19T13:26:35.089Z,16.45
2023-03-19T13:29:28.453Z,15.85
2023-03-19T13:32:06.102Z,17.23
2023-03-19T13:34:36.109Z,15.88
2023-03-19T13:37:23.974Z,15.75
2023-03-19T13:39:51.053Z,14.38
2023-03-19T13:42:41.466Z,16.85
2023-03-19T13:45:20.284Z,14.73
2023-03-19T13:47:49.561Z,16.15
2023-03-19T13:50:19.298Z,18.83
2023-03-19T13:52:50.552Z,17.80
2023-03-19T13:55:32.799Z,14.88
2023-03-19T13:58:37.821Z,13.77
2023-03-19T14:01:07.136Z,13.00
2023-03-19T14:03:37.310Z,16.17
2023-03-19T14:06:04.759Z,16.85
2023-03-19T14:08:47.404Z,17.60
2023-03-19T14:11:29.116Z,15.93
2023-03-19T14:14:00.710Z,15.93
2023-03-19T14:16:34.620Z,15.95
2023-03-19T14:19:05.125Z,16.42
2023-03-19T14:22:08.032Z,13.95
2023-03-19T14:24:58.806Z,12.70
2023-03-19T14:27:33.457Z,13.70
2023-03-19T14:30:09.582Z,13.88
2023-03-19T14:32:42.674Z,14.23
2023-03-19T14:35:17.264Z,13.98
2023-03-19T14:37:50.382Z,13.32
2023-03-19T14:40:24.673Z,13.13
2023-03-19T14:43:22.500Z,12.80
2023-03-19T14:46:05.785Z,13.05
2023-03-19T14:48:51.343Z,14.18
2023-03-19T14:51:36.417Z,13.05
2023-03-19T14:54:42.797Z,15.45
2023-03-19T14:57:27.081Z,17.27
2023-03-19T14:59:54.904Z,16.65
2023-03-19T15:02:30.600Z,15.75
2023-03-19T15:05:00.512Z,16.38
2023-03-19T15:07:40.271Z,15.63
2023-03-19T15:10:13.904Z,14.05
2023-03-19T15:13:25.391Z,12.43
2023-03-19T15:16:10.975Z,12.90
2023-03-19T15:18:38.814Z,18.80
2023-03-19T15:21:06.435Z,13.48
2023-03-19T15:23:34.011Z,14.38
2023-03-19T15:26:03.309Z,12.98
2023-03-19T15:28:45.846Z,16.15
2023-03-19T15:31:29.862Z,12.70
2023-03-19T15:33:58.723Z,15.00
2023-03-19T15:36:31.700Z,14.20
2023-03-19T15:39:11.120Z,16.05
2023-03-19T15:41:43.388Z,13.07
2023-03-19T15:44:17.592Z,16.08
2023-03-19T15:46:46.027Z,14.52
2023-03-19T15:49:37.762Z,13.65
2023-03-19T15:52:11.371Z,17.58
2023-03-19T15:54:38.752Z,15.63
2023-03-19T15:57:07.008Z,16.20
2023-03-19T15:59:34.200Z,12.18
2023-03-19T16:02:03.865Z,14.32
2023-03-19T16:04:38.541Z,15.52
2023-03-19T16:07:23.610Z,15.98
2023-03-19T16:09:50.689Z,19.45
2023-03-19T16:12:37.341Z,19.52
2023-03-19T16:15:33.127Z,21.45
2023-03-19T16:18:31.082Z,20.83
2023-03-19T16:21:36.435Z,25.17
2023-03-19T16:26:44.430Z,20.92
2023-03-19T16:29:22.687Z,22.50
2023-03-19T16:31:52.577Z,21.70
2023-03-19T16:34:32.265Z,23.45
2023-03-19T16:37:00.757Z,28.02
2023-03-19T16:39:30.657Z,31.33
2023-03-19T16:42:28.750Z,27.58
2023-03-19T16:44:56.437Z,27.38
2023-03-19T16:47:23.782Z,28.15
2023-03-19T16:49:50.900Z,30.75
2023-03-19T16:52:22.331Z,25.88
2023-03-19T16:54:49.789Z,24.45
2023-03-19T16:57:17.558Z,27.45
2023-03-19T16:59:46.088Z,30.58
2023-03-19T17:02:18.351Z,30.65
2023-03-19T17:04:46.046Z,28.60
2023-03-19T17:07:13.685Z,28.67
2023-03-19T17:09:40.659Z,25.20
2023-03-19T17:12:13.019Z,29.88
2023-03-19T17:14:39.959Z,28.20
2023-03-19T17:17:22.618Z,27.70
2023-03-19T17:19:49.683Z,22.83
2023-03-19T17:22:16.753Z,23.30
2023-03-19T17:24:44.081Z,26.77
2023-03-19T17:27:11.823Z,32.03
2023-03-19T17:29:38.842Z,24.17
2023-03-19T17:32:13.539Z,26.98
2023-03-19T17:34:40.463Z,28.02
2023-03-19T17:37:13.068Z,24.83
2023-03-19T17:39:41.840Z,23.95
2023-03-19T17:42:23.476Z,20.63
2023-03-19T17:44:50.730Z,24.88
2023-03-19T17:47:19.148Z,26.70
2023-03-19T17:49:46.445Z,24.17
2023-03-19T17:52:16.316Z,24.85
2023-03-19T17:54:43.854Z,24.10
2023-03-19T17:57:13.373Z,26.17
2023-03-19T17:59:40.429Z,26.67
2023-03-19T18:02:32.885Z,31.13
2023-03-19T18:05:00.334Z,28.73
2023-03-19T18:07:27.206Z,22.60
2023-03-19T18:09:54.056Z,25.13
2023-03-19T18:12:21.084Z,24.35
2023-03-19T18:14:48.013Z,27.48
2023-03-19T18:17:17.125Z,25.33
2023-03-19T18:19:47.516Z,20.63
2023-03-19T18:22:18.693Z,23.58
2023-03-19T18:24:46.061Z,21.83
2023-03-19T18:27:12.980Z,22.23
2023-03-19T18:29:39.936Z,19.85
2023-03-19T18:32:13.741Z,21.83
2023-03-19T18:34:40.659Z,27.10
2023-03-19T18:37:07.591Z,20.35
2023-03-19T18:39:38.123Z,20.00
2023-03-19T18:42:05.040Z,22.67
2023-03-19T18:44:31.942Z,19.38
2023-03-19T18:46:58.872Z,24.88
2023-03-19T18:49:27.659Z,30.90
2023-03-19T18:52:02.654Z,19.48
2023-03-19T18:54:31.282Z,22.10
2023-03-19T18:57:00.506Z,26.02
2023-03-19T18:59:30.909Z,19.00
2023-03-19T19:02:01.895Z,19.63
2023-03-19T19:04:29.927Z,14.68
2023-03-19T19:06:57.043Z,17.25
2023-03-19T19:09:23.915Z,18.08
2023-03-19T19:11:50.868Z,18.92
2023-03-19T19:14:23.825Z,17.75
2023-03-19T19:16:51.765Z,23.58
2023-03-19T19:19:24.922Z,21.00
2023-03-19T19:21:52.112Z,23.48
2023-03-19T19:24:19.277Z,20.35
2023-03-19T19:26:48.352Z,18.17
2023-03-19T19:41:36.748Z,24.67
2023-03-19T19:44:04.158Z,17.20
2023-03-19T19:46:32.036Z,21.70
2023-03-19T19:48:59.562Z,16.92
2023-03-19T19:51:29.000Z,16.63
2023-03-19T19:53:55.951Z,20.60
2023-03-19T19:56:25.766Z,18.08
2023-03-19T19:58:54.888Z,17.77
2023-03-19T20:01:24.922Z,17.63
2023-03-19T20:03:52.805Z,20.73
2023-03-19T20:06:20.459Z,19.35
2023-03-19T20:08:50.722Z,16.58
2023-03-19T20:11:20.367Z,21.90
2023-03-19T20:13:51.552Z,18.65
2023-03-19T20:16:20.104Z,19.55
2023-03-19T20:18:47.698Z,18.13
2023-03-19T20:21:16.050Z,16.02
2023-03-19T20:23:45.187Z,16.50
2023-03-19T20:26:17.516Z,20.13
2023-03-19T20:28:45.084Z,21.58
2023-03-19T20:31:26.470Z,21.77
2023-03-19T20:33:53.398Z,17.35
2023-03-19T20:36:20.503Z,18.25
2023-03-19T20:38:47.418Z,17.10
2023-03-19T20:41:23.680Z,20.83
2023-03-19T20:43:52.164Z,21.00
2023-03-19T20:46:21.095Z,20.05
2023-03-19T20:48:48.842Z,21.10
2023-03-19T20:51:21.758Z,16.15
2023-03-19T20:53:49.933Z,20.08
2023-03-19T20:56:20.341Z,18.00
2023-03-19T20:58:47.401Z,18.05
2023-03-19T21:01:15.627Z,18.67
2023-03-19T21:03:42.809Z,16.05
2023-03-19T21:06:18.101Z,24.05
2023-03-19T21:08:58.830Z,22.42
2023-03-19T21:11:40.909Z,22.63
2023-03-19T21:14:15.970Z,17.25
2023-03-19T21:16:42.826Z,18.02
2023-03-19T21:19:09.779Z,19.48
2023-03-19T21:21:37.683Z,18.23
2023-03-19T21:24:08.131Z,17.02
2023-03-19T21:26:38.154Z,19.85
2023-03-19T21:29:08.337Z,20.63
2023-03-19T21:31:35.630Z,22.30
2023-03-19T21:34:02.633Z,18.80
2023-03-19T21:36:29.615Z,19.52
2023-03-19T21:38:56.730Z,18.63
2023-03-19T21:41:30.492Z,19.10
2023-03-19T21:44:03.183Z,22.98
2023-03-19T21:46:31.733Z,17.58
2023-03-19T21:48:59.340Z,16.95
2023-03-19T21:51:29.573Z,17.45
2023-03-19T21:53:56.567Z,21.30
2023-03-19T21:56:32.590Z,16.00
2023-03-19T21:59:10.408Z,18.95
2023-03-19T22:01:37.278Z,21.08
2023-03-19T22:04:04.120Z,18.10
2023-03-19T22:06:31.390Z,19.95
2023-03-19T22:08:59.386Z,18.63
2023-03-19T22:11:32.453Z,22.23
2023-03-19T22:14:14.969Z,20.02
2023-03-19T22:16:42.604Z,18.65
2023-03-19T22:19:14.436Z,18.70
2023-03-19T22:21:41.443Z,18.13
2023-03-19T22:24:08.433Z,20.40
2023-03-19T22:26:38.700Z,20.98
2023-03-19T22:29:13.680Z,19.35
2023-03-19T22:31:41.309Z,21.50
2023-03-19T22:34:14.958Z,17.35
2023-03-19T22:36:41.942Z,21.13
2023-03-19T22:39:09.269Z,18.30
2023-03-19T22:41:41.069Z,18.45
2023-03-19T22:44:13.299Z,19.30
2023-03-19T22:46:40.439Z,20.35
2023-03-19T22:49:13.641Z,19.17
2023-03-19T22:51:40.556Z,15.65
2023-03-19T22:54:07.484Z,19.70
2023-03-19T22:56:34.258Z,22.00
2023-03-19T22:59:01.363Z,19.90
2023-03-19T23:01:34.929Z,21.85
2023-03-19T23:04:18.174Z,20.77
2023-03-19T23:06:45.386Z,22.67
2023-03-19T23:09:17.942Z,23.77
2023-03-19T23:11:45.289Z,19.73
2023-03-19T23:14:26.339Z,18.05
2023-03-19T23:19:28.457Z,21.00
2023-03-19T23:21:55.957Z,30.05
2023-03-19T23:24:24.356Z,24.55
2023-03-19T23:26:54.399Z,21.73
2023-03-19T23:29:29.855Z,23.90
2023-03-19T23:31:59.672Z,23.60
2023-03-19T23:34:28.750Z,25.98
2023-03-19T23:36:56.347Z,23.50
2023-03-19T23:39:24.125Z,20.75
2023-03-19T23:41:54.633Z,22.45
2023-03-19T23:44:22.105Z,26.70
2023-03-19T23:46:51.605Z,22.38
2023-03-19T23:49:28.920Z,23.35
2023-03-19T23:51:56.718Z,22.33
2023-03-19T23:54:34.501Z,21.15
2023-03-19T23:57:06.706Z,20.77
2023-03-19T23:59:37.150Z,26.92
